sensor_id;sensor_type;location;lat;lon;timestamp;pressure;altitude;pressure_sealevel;temperature;humidity
59435;BME280;45241;49.768;8.636;2022-12-29T00:02:15;99521.19;;;13.68;69.32
59435;BME280;45241;49.768;8.636;2022-12-29T00:04:41;99539.41;;;13.55;70.35
59435;BME280;45241;49.768;8.636;2022-12-29T00:07:06;99537.16;;;13.82;69.51
59435;BME280;45241;49.768;8.636;2022-12-29T00:09:33;99532.44;;;13.65;70.33
59435;BME280;45241;49.768;8.636;2022-12-29T00:11:59;99529.78;;;13.77;70.21
59435;BME280;45241;49.768;8.636;2022-12-29T00:14:25;99526.94;;;13.60;70.55
59435;BME280;45241;49.768;8.636;2022-12-29T00:17:08;99537.72;;;13.42;71.69
59435;BME280;45241;49.768;8.636;2022-12-29T00:19:34;99546.47;;;13.37;71.82
59435;BME280;45241;49.768;8.636;2022-12-29T00:22:17;99537.31;;;13.57;71.05
59435;BME280;45241;49.768;8.636;2022-12-29T00:25:02;99534.63;;;13.57;71.79
59435;BME280;45241;49.768;8.636;2022-12-29T00:27:33;99539.88;;;13.33;72.71
59435;BME280;45241;49.768;8.636;2022-12-29T00:30:20;99532.75;;;13.57;71.82
59435;BME280;45241;49.768;8.636;2022-12-29T00:33:15;99532.75;;;13.57;72.14
59435;BME280;45241;49.768;8.636;2022-12-29T00:36:22;99538.84;;;13.34;72.67
59435;BME280;45241;49.768;8.636;2022-12-29T00:38:51;99545.66;;;13.37;73.25
59435;BME280;45241;49.768;8.636;2022-12-29T00:41:36;99540.69;;;13.34;73.39
59435;BME280;45241;49.768;8.636;2022-12-29T00:44:20;99537.66;;;13.30;74.88
59435;BME280;45241;49.768;8.636;2022-12-29T00:46:45;99529.38;;;13.13;76.69
59435;BME280;45241;49.768;8.636;2022-12-29T00:49:12;99538.13;;;13.09;78.00
59435;BME280;45241;49.768;8.636;2022-12-29T00:52:02;99539.69;;;13.16;77.09
59435;BME280;45241;49.768;8.636;2022-12-29T00:54:33;99534.06;;;13.18;76.94
59435;BME280;45241;49.768;8.636;2022-12-29T00:56:59;99536.16;;;13.34;77.48
59435;BME280;45241;49.768;8.636;2022-12-29T00:59:25;99529.28;;;13.20;77.67
59435;BME280;45241;49.768;8.636;2022-12-29T01:01:51;99533.47;;;13.16;77.09
59435;BME280;45241;49.768;8.636;2022-12-29T01:04:17;99518.66;;;13.25;77.30
59435;BME280;45241;49.768;8.636;2022-12-29T01:06:42;99534.88;;;13.18;77.98
59435;BME280;45241;49.768;8.636;2022-12-29T01:09:08;99522.84;;;13.39;76.88
59435;BME280;45241;49.768;8.636;2022-12-29T01:11:52;99524.66;;;13.27;78.12
59435;BME280;45241;49.768;8.636;2022-12-29T01:14:21;99520.59;;;13.18;79.53
59435;BME280;45241;49.768;8.636;2022-12-29T01:16:47;99513.13;;;13.20;79.92
59435;BME280;45241;49.768;8.636;2022-12-29T01:19:14;99510.72;;;13.48;79.60
59435;BME280;45241;49.768;8.636;2022-12-29T01:21:39;99519.78;;;13.17;81.69
59435;BME280;45241;49.768;8.636;2022-12-29T01:24:05;99510.31;;;13.15;83.01
59435;BME280;45241;49.768;8.636;2022-12-29T01:26:30;99512.59;;;13.30;82.18
59435;BME280;45241;49.768;8.636;2022-12-29T01:28:55;99513.66;;;13.59;81.24
59435;BME280;45241;49.768;8.636;2022-12-29T01:31:21;99515.56;;;13.70;81.04
59435;BME280;45241;49.768;8.636;2022-12-29T01:33:46;99505.75;;;13.45;82.64
59435;BME280;45241;49.768;8.636;2022-12-29T01:36:14;99512.13;;;13.51;82.33
59435;BME280;45241;49.768;8.636;2022-12-29T01:38:40;99501.06;;;13.71;81.26
59435;BME280;45241;49.768;8.636;2022-12-29T01:41:07;99507.66;;;13.75;81.74
59435;BME280;45241;49.768;8.636;2022-12-29T01:43:49;99510.34;;;13.75;81.21
59435;BME280;45241;49.768;8.636;2022-12-29T01:48:51;99508.31;;;13.70;81.25
59435;BME280;45241;49.768;8.636;2022-12-29T01:51:17;99519.47;;;13.74;80.06
59435;BME280;45241;49.768;8.636;2022-12-29T01:53:44;99496.44;;;13.60;81.33
59435;BME280;45241;49.768;8.636;2022-12-29T01:56:11;99501.19;;;13.46;81.04
59435;BME280;45241;49.768;8.636;2022-12-29T01:58:41;99501.75;;;13.66;80.59
59435;BME280;45241;49.768;8.636;2022-12-29T02:01:08;99511.16;;;13.75;79.82
59435;BME280;45241;49.768;8.636;2022-12-29T02:03:34;99508.25;;;13.47;81.18
59435;BME280;45241;49.768;8.636;2022-12-29T02:08:36;99492.28;;;13.64;81.20
59435;BME280;45241;49.768;8.636;2022-12-29T02:11:02;99489.84;;;13.44;82.10
59435;BME280;45241;49.768;8.636;2022-12-29T02:13:28;99498.19;;;13.54;82.19
59435;BME280;45241;49.768;8.636;2022-12-29T02:16:09;99492.75;;;13.61;81.94
59435;BME280;45241;49.768;8.636;2022-12-29T02:19:04;99495.22;;;13.44;82.71
59435;BME280;45241;49.768;8.636;2022-12-29T02:27:18;99482.75;;;13.49;83.78
59435;BME280;45241;49.768;8.636;2022-12-29T02:30:08;99483.38;;;13.63;83.81
59435;BME280;45241;49.768;8.636;2022-12-29T02:35:13;99481.03;;;13.67;83.53
59435;BME280;45241;49.768;8.636;2022-12-29T02:37:42;99476.44;;;13.26;85.99
59435;BME280;45241;49.768;8.636;2022-12-29T02:40:46;99471.03;;;13.56;85.03
59435;BME280;45241;49.768;8.636;2022-12-29T02:43:23;99462.13;;;13.55;85.11
59435;BME280;45241;49.768;8.636;2022-12-29T02:45:54;99467.72;;;13.42;85.35
59435;BME280;45241;49.768;8.636;2022-12-29T02:48:29;99456.47;;;13.45;85.96
59435;BME280;45241;49.768;8.636;2022-12-29T02:51:04;99465.25;;;13.40;85.98
59435;BME280;45241;49.768;8.636;2022-12-29T02:53:32;99464.25;;;13.23;86.68
59435;BME280;45241;49.768;8.636;2022-12-29T02:56:17;99455.41;;;13.34;86.45
59435;BME280;45241;49.768;8.636;2022-12-29T02:58:42;99452.16;;;13.44;86.02
59435;BME280;45241;49.768;8.636;2022-12-29T03:07:24;99434.00;;;13.39;86.49
59435;BME280;45241;49.768;8.636;2022-12-29T03:10:04;99431.34;;;13.51;85.81
59435;BME280;45241;49.768;8.636;2022-12-29T03:12:48;99425.16;;;13.50;85.39
59435;BME280;45241;49.768;8.636;2022-12-29T03:15:44;99412.06;;;13.66;84.79
59435;BME280;45241;49.768;8.636;2022-12-29T03:21:24;99415.88;;;13.46;85.50
59435;BME280;45241;49.768;8.636;2022-12-29T03:24:13;99418.50;;;13.65;84.78
59435;BME280;45241;49.768;8.636;2022-12-29T03:26:40;99407.72;;;13.65;84.34
59435;BME280;45241;49.768;8.636;2022-12-29T03:29:07;99407.47;;;13.55;84.89
59435;BME280;45241;49.768;8.636;2022-12-29T03:31:35;99408.28;;;13.55;84.58
59435;BME280;45241;49.768;8.636;2022-12-29T03:34:03;99417.06;;;13.50;84.51
59435;BME280;45241;49.768;8.636;2022-12-29T03:36:36;99417.06;;;13.50;84.65
59435;BME280;45241;49.768;8.636;2022-12-29T03:39:09;99424.78;;;13.59;84.25
59435;BME280;45241;49.768;8.636;2022-12-29T03:41:37;99419.03;;;13.43;84.32
59435;BME280;45241;49.768;8.636;2022-12-29T03:44:07;99407.03;;;13.81;82.64
59435;BME280;45241;49.768;8.636;2022-12-29T03:46:33;99411.59;;;13.69;82.72
59435;BME280;45241;49.768;8.636;2022-12-29T03:48:58;99403.16;;;13.65;82.44
59435;BME280;45241;49.768;8.636;2022-12-29T03:51:23;99414.03;;;13.59;82.98
59435;BME280;45241;49.768;8.636;2022-12-29T03:53:49;99409.59;;;13.64;82.64
59435;BME280;45241;49.768;8.636;2022-12-29T03:56:14;99408.66;;;13.70;81.95
59435;BME280;45241;49.768;8.636;2022-12-29T03:58:39;99398.91;;;13.58;82.06
59435;BME280;45241;49.768;8.636;2022-12-29T04:01:05;99396.44;;;13.44;83.69
59435;BME280;45241;49.768;8.636;2022-12-29T04:03:30;99404.88;;;13.60;82.09
59435;BME280;45241;49.768;8.636;2022-12-29T04:05:55;99391.44;;;13.60;82.19
59435;BME280;45241;49.768;8.636;2022-12-29T04:08:21;99390.28;;;13.67;81.53
59435;BME280;45241;49.768;8.636;2022-12-29T04:10:48;99400.22;;;13.67;81.39
59435;BME280;45241;49.768;8.636;2022-12-29T04:13:14;99407.94;;;13.52;81.90
59435;BME280;45241;49.768;8.636;2022-12-29T04:15:39;99390.03;;;13.69;80.87
59435;BME280;45241;49.768;8.636;2022-12-29T04:18:04;99402.19;;;13.60;81.45
59435;BME280;45241;49.768;8.636;2022-12-29T04:20:29;99383.13;;;13.61;81.45
59435;BME280;45241;49.768;8.636;2022-12-29T04:23:13;99373.28;;;13.55;81.52
59435;BME280;45241;49.768;8.636;2022-12-29T04:25:38;99378.94;;;13.65;81.38
59435;BME280;45241;49.768;8.636;2022-12-29T04:28:04;99390.97;;;13.51;81.57
59435;BME280;45241;49.768;8.636;2022-12-29T04:30:30;99384.91;;;13.67;80.47
59435;BME280;45241;49.768;8.636;2022-12-29T04:32:55;99373.50;;;13.54;81.34
59435;BME280;45241;49.768;8.636;2022-12-29T04:35:20;99385.38;;;13.64;80.14
59435;BME280;45241;49.768;8.636;2022-12-29T04:37:46;99373.41;;;13.72;80.18
59435;BME280;45241;49.768;8.636;2022-12-29T04:40:11;99388.88;;;13.65;80.50
59435;BME280;45241;49.768;8.636;2022-12-29T04:42:37;99380.44;;;13.49;80.40
59435;BME280;45241;49.768;8.636;2022-12-29T04:45:02;99373.31;;;13.67;80.56
59435;BME280;45241;49.768;8.636;2022-12-29T04:47:27;99384.81;;;13.74;79.63
59435;BME280;45241;49.768;8.636;2022-12-29T04:49:53;99391.69;;;13.82;79.54
59435;BME280;45241;49.768;8.636;2022-12-29T04:52:18;99376.81;;;13.67;79.69
59435;BME280;45241;49.768;8.636;2022-12-29T04:54:43;99396.34;;;13.51;80.79
59435;BME280;45241;49.768;8.636;2022-12-29T04:57:09;99379.06;;;13.82;79.71
59435;BME280;45241;49.768;8.636;2022-12-29T04:59:34;99377.75;;;13.85;78.73
59435;BME280;45241;49.768;8.636;2022-12-29T05:01:59;99385.81;;;13.73;79.13
59435;BME280;45241;49.768;8.636;2022-12-29T05:04:24;99376.09;;;13.72;79.26
59435;BME280;45241;49.768;8.636;2022-12-29T05:06:50;99372.56;;;13.60;79.61
59435;BME280;45241;49.768;8.636;2022-12-29T05:09:15;99386.88;;;13.72;78.71
59435;BME280;45241;49.768;8.636;2022-12-29T05:11:40;99387.34;;;13.69;78.95
59435;BME280;45241;49.768;8.636;2022-12-29T05:14:06;99384.19;;;13.72;78.75
59435;BME280;45241;49.768;8.636;2022-12-29T05:16:31;99372.03;;;13.81;78.35
59435;BME280;45241;49.768;8.636;2022-12-29T05:18:56;99386.88;;;13.72;78.87
59435;BME280;45241;49.768;8.636;2022-12-29T05:21:21;99384.19;;;13.72;79.20
59435;BME280;45241;49.768;8.636;2022-12-29T05:23:47;99388.44;;;13.79;78.12
59435;BME280;45241;49.768;8.636;2022-12-29T05:26:12;99384.34;;;13.77;78.27
59435;BME280;45241;49.768;8.636;2022-12-29T05:28:37;99376.34;;;13.82;77.89
59435;BME280;45241;49.768;8.636;2022-12-29T05:31:03;99412.09;;;13.89;77.62
59435;BME280;45241;49.768;8.636;2022-12-29T05:33:28;99388.66;;;13.78;77.61
59435;BME280;45241;49.768;8.636;2022-12-29T05:35:53;99401.44;;;13.94;76.86
59435;BME280;45241;49.768;8.636;2022-12-29T05:38:19;99401.69;;;14.04;75.96
59435;BME280;45241;49.768;8.636;2022-12-29T05:40:44;99413.38;;;13.98;76.54
59435;BME280;45241;49.768;8.636;2022-12-29T05:43:09;99397.56;;;13.90;75.99
59435;BME280;45241;49.768;8.636;2022-12-29T05:45:36;99386.00;;;14.01;76.01
59435;BME280;45241;49.768;8.636;2022-12-29T05:48:01;99397.94;;;14.05;75.76
59435;BME280;45241;49.768;8.636;2022-12-29T05:50:26;99389.03;;;13.93;76.17
59435;BME280;45241;49.768;8.636;2022-12-29T05:52:52;99389.13;;;14.10;75.24
59435;BME280;45241;49.768;8.636;2022-12-29T05:55:17;99377.56;;;13.86;76.32
59435;BME280;45241;49.768;8.636;2022-12-29T05:57:42;99375.56;;;14.05;76.04
59435;BME280;45241;49.768;8.636;2022-12-29T06:00:08;99382.47;;;13.89;76.47
59435;BME280;45241;49.768;8.636;2022-12-29T06:02:34;99374.16;;;14.14;75.46
59435;BME280;45241;49.768;8.636;2022-12-29T06:04:59;99381.19;;;13.92;76.13
59435;BME280;45241;49.768;8.636;2022-12-29T06:07:24;99374.50;;;13.94;75.85
59435;BME280;45241;49.768;8.636;2022-12-29T06:09:50;99373.31;;;13.90;76.10
59435;BME280;45241;49.768;8.636;2022-12-29T06:12:15;99369.81;;;14.01;75.65
59435;BME280;45241;49.768;8.636;2022-12-29T06:14:41;99378.13;;;14.12;75.29
59435;BME280;45241;49.768;8.636;2022-12-29T06:17:06;99379.88;;;14.18;74.97
59435;BME280;45241;49.768;8.636;2022-12-29T06:19:31;99386.81;;;14.02;75.47
59435;BME280;45241;49.768;8.636;2022-12-29T06:21:57;99381.28;;;14.20;75.03
59435;BME280;45241;49.768;8.636;2022-12-29T06:24:22;99394.41;;;13.93;76.11
59435;BME280;45241;49.768;8.636;2022-12-29T06:26:47;99388.91;;;14.12;75.45
59435;BME280;45241;49.768;8.636;2022-12-29T06:29:13;99373.78;;;13.99;75.65
59435;BME280;45241;49.768;8.636;2022-12-29T06:31:42;99375.22;;;14.13;75.74
59435;BME280;45241;49.768;8.636;2022-12-29T06:34:08;99374.97;;;13.91;76.97
59435;BME280;45241;49.768;8.636;2022-12-29T06:36:34;99387.84;;;13.89;76.39
59435;BME280;45241;49.768;8.636;2022-12-29T06:38:59;99386.09;;;14.06;76.15
59435;BME280;45241;49.768;8.636;2022-12-29T06:41:24;99386.81;;;14.02;76.35
59435;BME280;45241;49.768;8.636;2022-12-29T06:43:50;99383.97;;;13.97;76.29
59435;BME280;45241;49.768;8.636;2022-12-29T06:46:15;99385.25;;;13.83;76.77
59435;BME280;45241;49.768;8.636;2022-12-29T06:48:40;99386.44;;;13.98;76.66
59435;BME280;45241;49.768;8.636;2022-12-29T06:51:07;99382.94;;;13.86;76.88
59435;BME280;45241;49.768;8.636;2022-12-29T06:53:32;99384.34;;;13.89;76.40
59435;BME280;45241;49.768;8.636;2022-12-29T06:55:57;99376.28;;;14.12;75.89
59435;BME280;45241;49.768;8.636;2022-12-29T06:58:23;99380.44;;;13.85;76.57
59435;BME280;45241;49.768;8.636;2022-12-29T07:00:48;99377.91;;;14.01;76.47
59435;BME280;45241;49.768;8.636;2022-12-29T07:03:14;99376.38;;;14.05;75.98
59435;BME280;45241;49.768;8.636;2022-12-29T07:05:39;99367.25;;;14.30;74.83
59435;BME280;45241;49.768;8.636;2022-12-29T07:08:04;99383.28;;;14.01;75.68
59435;BME280;45241;49.768;8.636;2022-12-29T07:10:30;99368.75;;;14.26;74.72
59435;BME280;45241;49.768;8.636;2022-12-29T07:12:56;99370.75;;;14.19;74.52
59435;BME280;45241;49.768;8.636;2022-12-29T07:15:21;99378.72;;;14.25;73.76
59435;BME280;45241;49.768;8.636;2022-12-29T07:17:47;99383.19;;;14.31;73.04
59435;BME280;45241;49.768;8.636;2022-12-29T07:20:14;99375.78;;;14.27;73.29
59435;BME280;45241;49.768;8.636;2022-12-29T07:22:40;99374.63;;;14.34;74.38
59435;BME280;45241;49.768;8.636;2022-12-29T07:25:05;99376.03;;;14.14;76.43
59435;BME280;45241;49.768;8.636;2022-12-29T07:27:30;99391.38;;;14.01;76.48
59435;BME280;45241;49.768;8.636;2022-12-29T07:29:56;99388.78;;;14.06;75.69
59435;BME280;45241;49.768;8.636;2022-12-29T07:32:21;99390.91;;;14.04;75.74
59435;BME280;45241;49.768;8.636;2022-12-29T07:34:46;99386.00;;;14.01;76.12
59435;BME280;45241;49.768;8.636;2022-12-29T07:37:14;99395.47;;;14.16;74.70
59435;BME280;45241;49.768;8.636;2022-12-29T07:39:39;99391.63;;;14.00;74.45
59435;BME280;45241;49.768;8.636;2022-12-29T07:42:05;99388.44;;;13.91;74.31
59435;BME280;45241;49.768;8.636;2022-12-29T07:44:30;99381.53;;;14.07;73.42
59435;BME280;45241;49.768;8.636;2022-12-29T07:46:55;99389.94;;;14.10;73.17
59435;BME280;45241;49.768;8.636;2022-12-29T07:49:20;99386.81;;;14.25;71.88
59435;BME280;45241;49.768;8.636;2022-12-29T07:51:46;99400.28;;;14.25;71.33
59435;BME280;45241;49.768;8.636;2022-12-29T07:54:11;99398.75;;;14.18;71.81
59435;BME280;45241;49.768;8.636;2022-12-29T07:56:37;99406.50;;;14.02;72.77
59435;BME280;45241;49.768;8.636;2022-12-29T07:59:03;99410.25;;;14.13;71.75
59435;BME280;45241;49.768;8.636;2022-12-29T08:01:28;99411.88;;;14.14;72.43
59435;BME280;45241;49.768;8.636;2022-12-29T08:03:54;99425.13;;;14.16;71.52
59435;BME280;45241;49.768;8.636;2022-12-29T08:06:19;99429.69;;;14.15;71.78
59435;BME280;45241;49.768;8.636;2022-12-29T08:08:45;99429.09;;;14.01;72.63
59435;BME280;45241;49.768;8.636;2022-12-29T08:11:10;99418.09;;;14.15;72.31
59435;BME280;45241;49.768;8.636;2022-12-29T08:13:35;99426.63;;;14.23;71.86
59435;BME280;45241;49.768;8.636;2022-12-29T08:16:01;99428.63;;;14.16;72.42
59435;BME280;45241;49.768;8.636;2022-12-29T08:18:26;99435.19;;;14.08;74.11
59435;BME280;45241;49.768;8.636;2022-12-29T08:20:51;99430.28;;;14.05;73.83
59435;BME280;45241;49.768;8.636;2022-12-29T08:23:17;99428.16;;;14.07;72.98
59435;BME280;45241;49.768;8.636;2022-12-29T08:25:42;99411.06;;;14.14;72.40
59435;BME280;45241;49.768;8.636;2022-12-29T08:28:07;99430.38;;;14.10;73.16
59435;BME280;45241;49.768;8.636;2022-12-29T08:30:35;99427.81;;;14.27;71.57
59435;BME280;45241;49.768;8.636;2022-12-29T08:33:01;99435.09;;;14.27;71.37
59435;BME280;45241;49.768;8.636;2022-12-29T08:35:26;99435.47;;;14.42;70.74
59435;BME280;45241;49.768;8.636;2022-12-29T08:37:51;99437.19;;;14.25;70.70
59435;BME280;45241;49.768;8.636;2022-12-29T08:40:17;99446.22;;;14.19;72.53
59435;BME280;45241;49.768;8.636;2022-12-29T08:42:43;99431.00;;;14.36;70.65
59435;BME280;45241;49.768;8.636;2022-12-29T08:45:08;99426.06;;;14.45;70.86
59435;BME280;45241;49.768;8.636;2022-12-29T08:47:34;99431.00;;;14.36;70.86
59435;BME280;45241;49.768;8.636;2022-12-29T08:49:59;99439.22;;;14.41;70.34
59435;BME280;45241;49.768;8.636;2022-12-29T08:52:25;99429.69;;;14.27;70.94
59435;BME280;45241;49.768;8.636;2022-12-29T08:54:50;99424.19;;;14.45;70.43
59435;BME280;45241;49.768;8.636;2022-12-29T08:57:15;99435.09;;;14.50;70.69
59435;BME280;45241;49.768;8.636;2022-12-29T08:59:41;99429.00;;;14.43;70.85
59435;BME280;45241;49.768;8.636;2022-12-29T09:02:10;99423.72;;;14.36;70.68
59435;BME280;45241;49.768;8.636;2022-12-29T09:04:36;99429.50;;;14.40;70.98
59435;BME280;45241;49.768;8.636;2022-12-29T09:07:01;99402.97;;;14.49;70.44
59435;BME280;45241;49.768;8.636;2022-12-29T09:09:26;99424.66;;;14.65;69.52
59435;BME280;45241;49.768;8.636;2022-12-29T09:11:51;99427.47;;;14.47;70.42
59435;BME280;45241;49.768;8.636;2022-12-29T09:14:17;99423.59;;;14.55;70.02
59435;BME280;45241;49.768;8.636;2022-12-29T09:16:42;99428.53;;;14.46;70.93
59435;BME280;45241;49.768;8.636;2022-12-29T09:19:26;99450.81;;;14.53;70.22
59435;BME280;45241;49.768;8.636;2022-12-29T09:21:51;99451.41;;;14.44;70.54
59435;BME280;45241;49.768;8.636;2022-12-29T09:24:16;99457.72;;;14.49;70.71
59435;BME280;45241;49.768;8.636;2022-12-29T09:26:41;99450.44;;;14.38;71.92
59435;BME280;45241;49.768;8.636;2022-12-29T09:29:07;99461.13;;;14.56;71.13
59435;BME280;45241;49.768;8.636;2022-12-29T09:31:33;99471.44;;;14.36;72.83
59435;BME280;45241;49.768;8.636;2022-12-29T09:33:58;99472.16;;;14.55;71.78
59435;BME280;45241;49.768;8.636;2022-12-29T09:36:24;99468.88;;;14.41;72.37
59435;BME280;45241;49.768;8.636;2022-12-29T09:38:49;99469.81;;;14.47;72.79
59435;BME280;45241;49.768;8.636;2022-12-29T09:41:27;99473.69;;;14.39;73.06
59435;BME280;45241;49.768;8.636;2022-12-29T09:44:08;99464.31;;;14.53;72.28
59435;BME280;45241;49.768;8.636;2022-12-29T09:46:41;99468.06;;;14.52;73.28
59435;BME280;45241;49.768;8.636;2022-12-29T09:51:48;99476.84;;;14.59;72.89
59435;BME280;45241;49.768;8.636;2022-12-29T09:54:20;99484.22;;;14.64;72.96
59435;BME280;45241;49.768;8.636;2022-12-29T09:56:47;99490.78;;;14.56;72.57
59435;BME280;45241;49.768;8.636;2022-12-29T09:59:17;99489.72;;;14.81;71.83
59435;BME280;45241;49.768;8.636;2022-12-29T10:02:04;99481.63;;;14.69;72.25
59435;BME280;45241;49.768;8.636;2022-12-29T10:04:37;99490.66;;;14.86;71.32
59435;BME280;45241;49.768;8.636;2022-12-29T10:07:16;99497.81;;;14.92;71.40
59435;BME280;45241;49.768;8.636;2022-12-29T10:10:03;99485.38;;;14.80;71.80
59435;BME280;45241;49.768;8.636;2022-12-29T10:12:44;99485.13;;;14.93;71.78
59435;BME280;45241;49.768;8.636;2022-12-29T10:18:03;99489.31;;;15.01;71.18
59435;BME280;45241;49.768;8.636;2022-12-29T10:23:26;99496.25;;;14.96;70.81
59435;BME280;45241;49.768;8.636;2022-12-29T10:25:57;99498.16;;;14.84;72.09
59435;BME280;45241;49.768;8.636;2022-12-29T10:28:38;99492.53;;;14.74;71.84
59435;BME280;45241;49.768;8.636;2022-12-29T10:31:11;99517.06;;;14.73;72.48
59435;BME280;45241;49.768;8.636;2022-12-29T10:33:41;99503.22;;;14.81;72.24
59435;BME280;45241;49.768;8.636;2022-12-29T10:36:16;99507.16;;;14.90;71.72
59435;BME280;45241;49.768;8.636;2022-12-29T10:41:38;62132.38;;;-142.51;100.00
59435;BME280;45241;49.768;8.636;2022-12-29T10:44:09;62132.38;;;-142.51;100.00
59435;BME280;45241;49.768;8.636;2022-12-29T10:46:38;62132.38;;;-142.51;100.00
59435;BME280;45241;49.768;8.636;2022-12-29T10:49:06;62132.38;;;-142.51;100.00
59435;BME280;45241;49.768;8.636;2022-12-29T10:51:38;62132.38;;;-142.51;100.00
59435;BME280;45241;49.768;8.636;2022-12-29T10:56:43;62132.38;;;-142.51;100.00
59435;BME280;45241;49.768;8.636;2022-12-29T10:59:20;62132.38;;;-142.51;100.00
59435;BME280;45241;49.768;8.636;2022-12-29T11:04:46;62132.38;;;-142.51;100.00
59435;BME280;45241;49.768;8.636;2022-12-29T11:07:17;62132.38;;;-142.51;100.00
59435;BME280;45241;49.768;8.636;2022-12-29T11:09:44;62132.38;;;-142.51;100.00
59435;BME280;45241;49.768;8.636;2022-12-29T11:12:26;62132.38;;;-142.51;100.00
59435;BME280;45241;49.768;8.636;2022-12-29T11:17:44;62132.38;;;-142.51;100.00
59435;BME280;45241;49.768;8.636;2022-12-29T11:20:33;62132.38;;;-142.51;100.00
59435;BME280;45241;49.768;8.636;2022-12-29T11:22:59;62132.38;;;-142.51;100.00
59435;BME280;45241;49.768;8.636;2022-12-29T11:25:25;62132.38;;;-142.51;100.00
59435;BME280;45241;49.768;8.636;2022-12-29T11:27:55;62132.38;;;-142.51;100.00
59435;BME280;45241;49.768;8.636;2022-12-29T11:30:27;62132.38;;;-142.51;100.00
59435;BME280;45241;49.768;8.636;2022-12-29T11:32:53;62132.38;;;-142.51;100.00
59435;BME280;45241;49.768;8.636;2022-12-29T11:35:42;62132.38;;;-142.51;100.00
59435;BME280;45241;49.768;8.636;2022-12-29T11:38:24;62132.38;;;-142.51;100.00
59435;BME280;45241;49.768;8.636;2022-12-29T11:40:51;62132.38;;;-142.51;100.00
59435;BME280;45241;49.768;8.636;2022-12-29T11:43:37;62132.38;;;-142.51;100.00
59435;BME280;45241;49.768;8.636;2022-12-29T11:46:04;62132.38;;;-142.51;100.00
59435;BME280;45241;49.768;8.636;2022-12-29T11:48:48;62132.38;;;-142.51;100.00
59435;BME280;45241;49.768;8.636;2022-12-29T11:51:25;62132.38;;;-142.51;100.00
59435;BME280;45241;49.768;8.636;2022-12-29T11:53:56;62132.38;;;-142.51;100.00
59435;BME280;45241;49.768;8.636;2022-12-29T11:56:34;62132.38;;;-142.51;100.00
59435;BME280;45241;49.768;8.636;2022-12-29T12:02:11;62132.38;;;-142.51;100.00
59435;BME280;45241;49.768;8.636;2022-12-29T12:04:38;62132.38;;;-142.51;100.00
59435;BME280;45241;49.768;8.636;2022-12-29T12:07:11;62132.38;;;-142.51;100.00
59435;BME280;45241;49.768;8.636;2022-12-29T12:10:00;62132.38;;;-142.51;100.00
59435;BME280;45241;49.768;8.636;2022-12-29T12:12:35;62132.38;;;-142.51;100.00
59435;BME280;45241;49.768;8.636;2022-12-29T12:15:05;62132.38;;;-142.51;100.00
59435;BME280;45241;49.768;8.636;2022-12-29T12:17:47;99570.44;;;12.84;100.00
59435;BME280;45241;49.768;8.636;2022-12-29T12:20:19;99574.44;;;13.18;97.35
59435;BME280;45241;49.768;8.636;2022-12-29T12:23:06;99574.28;;;13.31;95.85
59435;BME280;45241;49.768;8.636;2022-12-29T12:25:38;99561.44;;;13.15;95.34
59435;BME280;45241;49.768;8.636;2022-12-29T12:30:46;99555.59;;;13.36;96.54
59435;BME280;45241;49.768;8.636;2022-12-29T12:47:05;99546.41;;;13.26;98.22
59435;BME280;45241;49.768;8.636;2022-12-29T12:58:01;99531.34;;;13.55;92.58
59435;BME280;45241;49.768;8.636;2022-12-29T13:00:43;99538.34;;;13.56;92.06
59435;BME280;45241;49.768;8.636;2022-12-29T13:03:32;99527.59;;;13.56;91.76
59435;BME280;45241;49.768;8.636;2022-12-29T13:06:40;99526.00;;;13.36;93.93
59435;BME280;45241;49.768;8.636;2022-12-29T13:09:20;99518.00;;;13.60;88.76
59435;BME280;45241;49.768;8.636;2022-12-29T13:14:43;99516.03;;;13.67;86.50
59435;BME280;45241;49.768;8.636;2022-12-29T13:17:35;99525.88;;;13.61;86.83
59435;BME280;45241;49.768;8.636;2022-12-29T13:20:18;99536.66;;;13.61;85.68
59435;BME280;45241;49.768;8.636;2022-12-29T13:23:09;99536.22;;;13.76;85.16
59435;BME280;45241;49.768;8.636;2022-12-29T13:25:48;99527.13;;;13.59;84.43
59435;BME280;45241;49.768;8.636;2022-12-29T13:34:16;99543.38;;;13.82;82.67
59435;BME280;45241;49.768;8.636;2022-12-29T13:41:30;99534.06;;;13.66;83.06
59435;BME280;45241;49.768;8.636;2022-12-29T13:43:58;99528.84;;;13.83;81.71
59435;BME280;45241;49.768;8.636;2022-12-29T13:46:35;99536.28;;;13.88;82.75
59435;BME280;45241;49.768;8.636;2022-12-29T13:49:12;99530.19;;;13.92;82.49
59435;BME280;45241;49.768;8.636;2022-12-29T13:51:48;99528.22;;;13.69;80.39
59435;BME280;45241;49.768;8.636;2022-12-29T13:54:39;99531.28;;;13.73;79.42
59435;BME280;45241;49.768;8.636;2022-12-29T13:57:21;99525.47;;;13.58;79.54
59435;BME280;45241;49.768;8.636;2022-12-29T14:00:02;99524.03;;;13.73;79.16
59435;BME280;45241;49.768;8.636;2022-12-29T14:05:30;99534.19;;;13.71;77.88
59435;BME280;45241;49.768;8.636;2022-12-29T14:07:59;99538.34;;;13.74;76.29
59435;BME280;45241;49.768;8.636;2022-12-29T14:10:38;99546.25;;;13.69;77.05
59435;BME280;45241;49.768;8.636;2022-12-29T14:13:13;99549.13;;;13.86;76.65
59435;BME280;45241;49.768;8.636;2022-12-29T14:15:41;99549.31;;;13.72;77.54
59435;BME280;45241;49.768;8.636;2022-12-29T14:18:16;99545.38;;;13.57;76.90
59435;BME280;45241;49.768;8.636;2022-12-29T14:20:59;99554.63;;;13.79;77.93
59435;BME280;45241;49.768;8.636;2022-12-29T14:23:38;99550.63;;;13.52;78.53
59435;BME280;45241;49.768;8.636;2022-12-29T14:28:40;99553.69;;;13.55;78.52
59435;BME280;45241;49.768;8.636;2022-12-29T14:31:33;99553.56;;;13.50;79.14
59435;BME280;45241;49.768;8.636;2022-12-29T14:36:38;99554.69;;;13.42;78.78
59435;BME280;45241;49.768;8.636;2022-12-29T14:39:29;99561.88;;;13.30;79.91
59435;BME280;45241;49.768;8.636;2022-12-29T14:42:00;99574.72;;;13.46;78.89
59435;BME280;45241;49.768;8.636;2022-12-29T14:44:28;99565.88;;;13.58;78.72
59435;BME280;45241;49.768;8.636;2022-12-29T14:49:21;99554.41;;;13.14;80.94